Time;durP1;ratioP1;P1;durP2;ratioP2;P2;SDS_P1;SDS_P2;PMS_P1;PMS_P2;Temp;Humidity;BMP_temperature;BMP_pressure;BME280_temperature;BME280_humidity;BME280_pressure;Samples;Min_cycle;Max_cycle;Signal;HPM_P1;HPM_P2
2023/04/23 00:00:35;;;;;;;0.90;0.90;;;14.60;99.90;;;;;;5082976;28;20227;-62
2023/04/23 00:03:09;;;;;;;1.00;1.00;;;14.60;99.90;;;;;;5082599;28;20257;-64
2023/04/23 00:05:40;;;;;;;1.10;1.10;;;14.60;99.90;;;;;;5086541;28;20199;-63
2023/04/23 00:08:12;;;;;;;1.00;1.00;;;14.60;99.90;;;;;;5074042;28;20207;-64
2023/04/23 00:10:40;;;;;;;0.93;0.93;;;14.50;99.90;;;;;;5071954;28;20314;-63
2023/04/23 00:13:17;;;;;;;0.80;0.80;;;14.50;99.90;;;;;;5072284;28;20338;-62
2023/04/23 00:15:55;;;;;;;1.30;1.30;;;14.50;99.90;;;;;;5070864;28;20210;-63
2023/04/23 00:18:22;;;;;;;1.00;1.00;;;14.50;99.90;;;;;;5072052;28;20242;-64
2023/04/23 00:20:49;;;;;;;1.10;1.10;;;14.40;99.90;;;;;;5069404;28;20311;-63
2023/04/23 00:23:21;;;;;;;0.98;0.98;;;14.30;99.90;;;;;;5069765;28;20612;-63
2023/04/23 00:25:50;;;;;;;1.27;1.20;;;14.30;99.90;;;;;;5069286;28;20207;-63
2023/04/23 00:28:19;;;;;;;0.83;0.83;;;14.30;99.90;;;;;;5070340;28;20214;-64
2023/04/23 00:30:46;;;;;;;1.00;1.00;;;14.30;99.90;;;;;;5070215;28;20284;-64
2023/04/23 00:33:13;;;;;;;0.90;0.90;;;14.30;99.90;;;;;;5067513;28;20706;-65
2023/04/23 00:35:40;;;;;;;1.00;1.00;;;14.30;99.90;;;;;;5066820;28;20215;-64
2023/04/23 00:38:13;;;;;;;0.80;0.80;;;14.30;99.90;;;;;;5057652;28;20724;-63
2023/04/23 00:40:48;;;;;;;1.00;1.00;;;14.30;99.90;;;;;;5067301;28;20727;-64
2023/04/23 00:43:21;;;;;;;0.80;0.80;;;14.20;99.90;;;;;;5070580;28;20696;-65
2023/04/23 00:45:54;;;;;;;1.10;1.10;;;14.20;99.90;;;;;;5069706;28;20968;-63
2023/04/23 00:48:23;;;;;;;1.23;1.00;;;14.20;99.90;;;;;;5070953;28;20290;-63
2023/04/23 00:51:03;;;;;;;1.00;1.00;;;14.20;99.90;;;;;;5068838;28;20239;-63
2023/04/23 00:53:34;;;;;;;1.13;1.00;;;14.20;99.90;;;;;;5076763;28;20318;-63
2023/04/23 00:56:11;;;;;;;1.10;1.10;;;14.20;99.90;;;;;;5079912;28;20674;-63
2023/04/23 00:58:41;;;;;;;1.08;1.08;;;14.20;99.90;;;;;;5079171;28;20198;-63
2023/04/23 01:01:09;;;;;;;0.85;0.85;;;14.20;99.90;;;;;;5070884;28;20772;-63
2023/04/23 01:03:41;;;;;;;1.20;1.10;;;14.20;99.90;;;;;;5051712;28;20295;-64
2023/04/23 01:06:10;;;;;;;1.00;1.00;;;14.20;99.90;;;;;;5046498;28;20317;-60
2023/04/23 01:08:39;;;;;;;0.90;0.90;;;14.10;99.90;;;;;;5054557;28;20200;-64
2023/04/23 01:11:09;;;;;;;0.90;0.90;;;14.10;99.90;;;;;;5053981;28;20227;-64
2023/04/23 01:13:36;;;;;;;1.20;1.10;;;14.10;99.90;;;;;;5054501;28;20242;-63
2023/04/23 01:16:07;;;;;;;1.10;1.00;;;14.10;99.90;;;;;;5055337;28;20204;-64
2023/04/23 01:18:36;;;;;;;1.08;1.08;;;14.10;99.90;;;;;;5054707;28;20218;-64
2023/04/23 01:21:04;;;;;;;1.15;1.10;;;14.10;99.90;;;;;;5053564;28;20424;-64
2023/04/23 01:23:33;;;;;;;1.08;1.08;;;14.10;99.90;;;;;;5053955;28;20210;-64
2023/04/23 01:26:03;;;;;;;1.00;1.00;;;14.10;99.90;;;;;;5053973;28;20235;-65
2023/04/23 01:28:30;;;;;;;1.00;1.00;;;14.00;99.90;;;;;;5054663;28;20235;-63
2023/04/23 01:30:59;;;;;;;1.00;1.00;;;14.00;99.90;;;;;;5058047;28;20251;-63
2023/04/23 01:33:29;;;;;;;1.10;1.10;;;14.00;99.90;;;;;;5056765;28;20262;-65
2023/04/23 01:36:00;;;;;;;1.27;1.17;;;14.00;99.90;;;;;;5052782;28;20290;-64
2023/04/23 01:38:33;;;;;;;1.20;1.20;;;14.00;99.90;;;;;;5053597;28;20196;-64
2023/04/23 01:41:02;;;;;;;0.98;0.98;;;13.90;99.90;;;;;;5052346;28;20706;-63
2023/04/23 01:43:29;;;;;;;1.20;1.10;;;13.90;99.90;;;;;;5053379;28;20290;-63
2023/04/23 01:45:58;;;;;;;1.10;1.10;;;13.90;99.90;;;;;;5062533;28;20666;-63
2023/04/23 01:48:25;;;;;;;0.82;0.82;;;13.90;99.90;;;;;;5060540;28;20202;-63
2023/04/23 01:50:54;;;;;;;0.90;0.90;;;14.00;99.90;;;;;;5058110;28;20226;-63
2023/04/23 01:53:21;;;;;;;0.95;0.95;;;13.90;99.90;;;;;;5062727;28;20588;-63
2023/04/23 01:55:48;;;;;;;0.90;0.90;;;13.90;99.90;;;;;;5062077;28;20223;-63
2023/04/23 01:58:22;;;;;;;1.00;1.00;;;13.90;99.90;;;;;;5062801;28;20246;-63
2023/04/23 02:00:49;;;;;;;1.00;1.00;;;14.00;99.90;;;;;;5059600;28;20277;-64
2023/04/23 02:03:19;;;;;;;1.08;1.08;;;14.00;99.90;;;;;;5061636;28;20202;-62
2023/04/23 02:05:46;;;;;;;1.00;1.00;;;14.00;99.90;;;;;;5062359;28;20210;-64
2023/04/23 02:08:13;;;;;;;0.98;0.98;;;14.00;99.90;;;;;;5065065;28;20200;-62
2023/04/23 02:10:43;;;;;;;1.00;1.00;;;14.00;99.90;;;;;;5061026;28;20240;-64
2023/04/23 02:13:13;;;;;;;1.00;1.00;;;14.00;99.90;;;;;;5062612;28;20220;-64
2023/04/23 02:15:42;;;;;;;1.00;1.00;;;14.00;99.90;;;;;;5065552;28;20218;-63
2023/04/23 02:18:14;;;;;;;0.90;0.90;;;13.90;99.90;;;;;;5062498;28;20719;-64
2023/04/23 02:20:43;;;;;;;0.88;0.88;;;13.80;99.90;;;;;;5060222;28;20220;-63
2023/04/23 02:23:10;;;;;;;1.42;1.10;;;13.70;99.90;;;;;;5061769;28;20192;-63
2023/04/23 02:25:38;;;;;;;1.08;1.08;;;13.60;99.90;;;;;;5063737;28;20645;-63
2023/04/23 02:28:06;;;;;;;1.00;1.00;;;13.70;99.90;;;;;;5062127;28;20196;-63
2023/04/23 02:30:36;;;;;;;1.00;1.00;;;13.70;99.90;;;;;;5064457;28;20216;-64
2023/04/23 02:33:05;;;;;;;0.77;0.77;;;13.70;99.90;;;;;;5064145;28;20219;-63
2023/04/23 02:35:34;;;;;;;0.82;0.82;;;13.70;99.90;;;;;;5062944;28;20612;-64
2023/04/23 02:38:01;;;;;;;1.00;1.00;;;13.70;99.90;;;;;;5062582;28;20654;-65
2023/04/23 02:40:32;;;;;;;1.10;1.10;;;13.70;99.90;;;;;;5059150;28;20216;-62
2023/04/23 02:43:02;;;;;;;1.02;0.93;;;13.70;99.90;;;;;;5059219;28;20219;-64
2023/04/23 02:45:38;;;;;;;0.90;0.90;;;13.70;99.90;;;;;;5061810;28;20199;-63
2023/04/23 02:48:07;;;;;;;0.80;0.80;;;13.70;99.90;;;;;;5061911;28;20191;-63
2023/04/23 02:50:40;;;;;;;0.70;0.70;;;13.70;99.90;;;;;;5063782;28;20225;-64
2023/04/23 02:53:07;;;;;;;0.70;0.70;;;13.70;99.90;;;;;;5060714;28;20269;-63
2023/04/23 02:55:34;;;;;;;0.70;0.70;;;13.80;99.90;;;;;;5060805;28;20614;-63
2023/04/23 02:58:01;;;;;;;0.90;0.90;;;13.80;99.90;;;;;;5063092;28;20660;-63
2023/04/23 03:00:28;;;;;;;0.83;0.83;;;13.80;99.90;;;;;;5059568;28;20225;-65
2023/04/23 03:02:55;;;;;;;0.90;0.90;;;13.80;99.90;;;;;;5060008;28;20200;-63
2023/04/23 03:05:23;;;;;;;0.70;0.70;;;13.70;99.90;;;;;;5061565;28;20203;-62
2023/04/23 03:07:50;;;;;;;0.93;0.93;;;13.70;99.90;;;;;;5064719;28;20200;-64
2023/04/23 03:10:17;;;;;;;0.70;0.70;;;13.70;99.90;;;;;;5071760;28;20315;-63
2023/04/23 03:12:44;;;;;;;0.90;0.90;;;13.80;99.90;;;;;;5059886;28;20587;-63
2023/04/23 03:15:11;;;;;;;0.70;0.70;;;13.80;99.90;;;;;;5060057;28;20202;-63
2023/04/23 03:17:38;;;;;;;0.70;0.70;;;13.80;99.90;;;;;;5061751;28;20199;-63
2023/04/23 03:20:06;;;;;;;0.70;0.70;;;13.80;99.90;;;;;;5062303;28;20238;-62
2023/04/23 03:22:38;;;;;;;0.70;0.70;;;13.90;99.90;;;;;;5061345;28;20188;-63
2023/04/23 03:25:06;;;;;;;0.77;0.77;;;13.80;99.90;;;;;;5061851;28;20203;-64
2023/04/23 03:27:32;;;;;;;0.67;0.67;;;13.80;99.90;;;;;;5063195;28;20615;-63
2023/04/23 03:29:59;;;;;;;0.68;0.68;;;13.80;99.90;;;;;;5056788;28;20248;-63
2023/04/23 03:32:26;;;;;;;0.75;0.75;;;13.80;99.90;;;;;;5053951;28;20204;-64
2023/04/23 03:34:53;;;;;;;0.63;0.63;;;13.80;99.90;;;;;;5054161;28;20207;-63
2023/04/23 03:37:20;;;;;;;0.80;0.80;;;13.70;99.90;;;;;;5054406;28;20300;-63
2023/04/23 03:39:48;;;;;;;0.70;0.70;;;13.80;99.90;;;;;;5054691;28;20306;-62
2023/04/23 03:42:15;;;;;;;0.70;0.70;;;13.70;99.90;;;;;;5056764;28;20216;-63
2023/04/23 03:44:41;;;;;;;0.60;0.60;;;13.70;99.90;;;;;;5060183;28;20295;-63
2023/04/23 03:47:08;;;;;;;0.70;0.70;;;13.70;99.90;;;;;;5060622;28;20214;-66
2023/04/23 03:49:35;;;;;;;0.80;0.80;;;13.70;99.90;;;;;;5058421;28;20295;-65
2023/04/23 03:52:03;;;;;;;0.77;0.77;;;13.60;99.90;;;;;;5060184;28;20184;-63
2023/04/23 03:54:29;;;;;;;0.60;0.60;;;13.70;99.90;;;;;;5057499;28;20230;-64
2023/04/23 03:56:58;;;;;;;1.27;0.83;;;13.60;99.90;;;;;;5070213;28;20218;-64
2023/04/23 03:59:24;;;;;;;0.80;0.80;;;13.60;99.90;;;;;;5067714;28;20739;-63
2023/04/23 04:01:51;;;;;;;0.70;0.70;;;13.60;99.90;;;;;;5066724;28;20230;-64
2023/04/23 04:04:25;;;;;;;0.90;0.90;;;13.60;99.90;;;;;;5069140;28;20234;-64
2023/04/23 04:06:52;;;;;;;0.80;0.80;;;13.50;99.90;;;;;;5070081;28;20224;-65
2023/04/23 04:09:19;;;;;;;0.80;0.80;;;13.50;99.90;;;;;;5068189;28;20239;-65
2023/04/23 04:11:45;;;;;;;0.77;0.77;;;13.50;99.90;;;;;;5061869;28;20227;-64
2023/04/23 04:14:14;;;;;;;0.70;0.70;;;13.50;99.90;;;;;;5056311;28;20439;-62
2023/04/23 04:16:40;;;;;;;0.70;0.70;;;13.60;99.90;;;;;;5054705;28;20210;-63
2023/04/23 04:19:07;;;;;;;0.60;0.60;;;13.50;99.90;;;;;;5053470;28;20674;-64
2023/04/23 04:21:34;;;;;;;0.60;0.60;;;13.50;99.90;;;;;;5054101;28;20318;-65
2023/04/23 04:24:01;;;;;;;0.67;0.60;;;13.50;99.90;;;;;;5053897;28;20200;-65
2023/04/23 04:26:28;;;;;;;0.60;0.60;;;13.50;99.90;;;;;;5056670;28;20222;-63
2023/04/23 04:28:57;;;;;;;0.57;0.57;;;13.50;99.90;;;;;;5053904;28;20678;-64
2023/04/23 04:31:26;;;;;;;0.60;0.60;;;13.50;99.90;;;;;;5053379;28;20243;-65
2023/04/23 04:33:54;;;;;;;0.50;0.50;;;13.50;99.90;;;;;;5053616;28;20227;-62
2023/04/23 04:36:21;;;;;;;0.53;0.53;;;13.50;99.90;;;;;;5052041;28;20204;-65
2023/04/23 04:38:49;;;;;;;0.60;0.60;;;13.50;99.90;;;;;;5052219;28;20287;-64
2023/04/23 04:41:16;;;;;;;0.73;0.73;;;13.40;99.90;;;;;;5058062;28;20705;-64
2023/04/23 04:43:44;;;;;;;0.60;0.60;;;13.30;99.90;;;;;;5077632;28;20570;-65
2023/04/23 04:46:11;;;;;;;0.75;0.75;;;13.40;99.90;;;;;;5075553;28;20678;-63
2023/04/23 04:48:39;;;;;;;0.50;0.50;;;13.30;99.90;;;;;;5075231;28;20215;-65
2023/04/23 04:51:06;;;;;;;0.60;0.60;;;13.30;99.90;;;;;;5074254;28;20223;-65
2023/04/23 04:53:34;;;;;;;0.50;0.50;;;13.20;99.90;;;;;;5074777;28;20269;-64
2023/04/23 04:56:01;;;;;;;0.70;0.70;;;13.20;99.90;;;;;;5074863;28;20215;-62
2023/04/23 04:58:28;;;;;;;0.60;0.60;;;13.10;99.90;;;;;;5074576;28;20597;-64
2023/04/23 05:00:55;;;;;;;0.67;0.67;;;13.10;99.90;;;;;;5073667;28;20227;-63
2023/04/23 05:03:22;;;;;;;0.70;0.60;;;13.10;99.90;;;;;;5074120;28;20282;-64
2023/04/23 05:05:50;;;;;;;0.60;0.60;;;13.10;99.90;;;;;;5074441;28;20299;-63
2023/04/23 05:08:20;;;;;;;0.60;0.60;;;12.90;99.90;;;;;;5074647;28;20233;-64
2023/04/23 05:10:49;;;;;;;0.70;0.70;;;12.90;99.90;;;;;;5073624;28;20230;-64
2023/04/23 05:13:16;;;;;;;0.70;0.70;;;12.90;99.90;;;;;;5074385;28;20223;-64
2023/04/23 05:15:43;;;;;;;0.80;0.80;;;13.00;99.90;;;;;;5074283;28;20203;-64
2023/04/23 05:18:10;;;;;;;0.73;0.68;;;12.80;99.90;;;;;;5073946;28;20210;-65
2023/04/23 05:20:37;;;;;;;0.57;0.57;;;12.80;99.90;;;;;;5073896;28;20223;-64
2023/04/23 05:23:05;;;;;;;0.60;0.60;;;12.70;99.90;;;;;;5074091;28;20211;-63
2023/04/23 05:25:33;;;;;;;0.60;0.60;;;12.60;99.90;;;;;;5074232;28;20295;-64
2023/04/23 05:28:00;;;;;;;0.60;0.60;;;12.60;99.90;;;;;;5074472;28;20576;-64
2023/04/23 05:30:27;;;;;;;0.50;0.50;;;12.60;99.90;;;;;;5073089;28;20300;-63
2023/04/23 05:32:54;;;;;;;0.52;0.52;;;12.60;99.90;;;;;;5073401;28;20294;-65
2023/04/23 05:35:21;;;;;;;0.80;0.80;;;12.60;99.90;;;;;;5074031;28;20566;-63
2023/04/23 05:37:48;;;;;;;0.52;0.52;;;12.60;99.90;;;;;;5073879;28;20207;-65
2023/04/23 05:40:16;;;;;;;0.73;0.73;;;12.70;99.90;;;;;;5072330;28;20345;-63
2023/04/23 05:42:43;;;;;;;0.60;0.60;;;12.80;99.90;;;;;;5072397;28;20207;-65
2023/04/23 05:45:11;;;;;;;0.80;0.80;;;12.80;99.90;;;;;;5072757;28;20873;-65
2023/04/23 05:47:38;;;;;;;0.83;0.67;;;12.90;99.90;;;;;;5072880;28;20207;-65
2023/04/23 05:50:06;;;;;;;0.50;0.50;;;12.90;99.90;;;;;;5071874;28;20231;-65
2023/04/23 05:52:36;;;;;;;0.50;0.50;;;12.90;99.90;;;;;;5071974;28;20203;-63
2023/04/23 05:55:03;;;;;;;0.50;0.50;;;13.00;99.90;;;;;;5072621;28;20295;-65
2023/04/23 05:57:31;;;;;;;0.60;0.60;;;13.00;99.90;;;;;;5073057;28;20303;-65
2023/04/23 05:59:58;;;;;;;0.70;0.70;;;13.00;99.90;;;;;;5072146;28;20257;-63
2023/04/23 06:02:25;;;;;;;0.68;0.68;;;13.00;99.90;;;;;;5066212;28;20204;-65
2023/04/23 06:04:51;;;;;;;0.40;0.40;;;12.90;99.90;;;;;;5072548;28;20191;-64
2023/04/23 06:07:18;;;;;;;0.63;0.63;;;12.90;99.90;;;;;;5072801;28;20195;-64
2023/04/23 06:09:45;;;;;;;0.40;0.40;;;13.00;99.90;;;;;;5070138;28;20680;-63
2023/04/23 06:12:12;;;;;;;0.55;0.55;;;13.10;99.90;;;;;;5073397;28;20196;-64
2023/04/23 06:14:40;;;;;;;0.60;0.60;;;13.20;99.90;;;;;;5073192;28;20223;-66
2023/04/23 06:17:07;;;;;;;0.57;0.57;;;13.30;99.90;;;;;;5072852;28;20298;-65
2023/04/23 06:19:34;;;;;;;0.60;0.60;;;13.50;99.90;;;;;;5071284;28;20603;-63
2023/04/23 06:22:01;;;;;;;0.50;0.50;;;13.50;99.90;;;;;;5073766;28;20651;-65
2023/04/23 06:24:28;;;;;;;0.60;0.60;;;13.60;99.90;;;;;;5065315;28;20302;-63
2023/04/23 06:26:55;;;;;;;0.57;0.57;;;13.60;99.90;;;;;;5073103;28;20759;-65
2023/04/23 06:29:21;;;;;;;0.80;0.80;;;13.80;99.90;;;;;;5072621;28;20238;-65
2023/04/23 06:31:50;;;;;;;0.50;0.50;;;13.80;99.90;;;;;;5066557;28;20589;-64
2023/04/23 06:34:16;;;;;;;0.30;0.30;;;14.00;99.90;;;;;;5055251;28;20310;-64
2023/04/23 06:36:43;;;;;;;0.50;0.50;;;14.00;99.90;;;;;;5072891;28;20259;-65
2023/04/23 06:39:10;;;;;;;0.55;0.55;;;14.20;99.90;;;;;;5079288;28;20207;-65
2023/04/23 06:41:37;;;;;;;0.60;0.60;;;14.30;99.90;;;;;;5082168;28;20270;-65
2023/04/23 06:44:05;;;;;;;0.73;0.73;;;14.40;99.90;;;;;;5082592;28;20199;-65
2023/04/23 06:46:31;;;;;;;0.60;0.60;;;14.50;99.90;;;;;;5086658;28;20277;-66
2023/04/23 06:49:00;;;;;;;0.77;0.77;;;14.60;99.90;;;;;;5070584;28;20214;-64
2023/04/23 06:51:27;;;;;;;0.60;0.60;;;14.70;99.90;;;;;;5070180;28;20226;-64
2023/04/23 06:53:54;;;;;;;0.60;0.60;;;14.80;99.90;;;;;;5069654;28;20223;-66
2023/04/23 06:56:21;;;;;;;0.90;0.90;;;14.90;99.90;;;;;;5074447;28;20204;-65
2023/04/23 06:58:48;;;;;;;1.00;1.00;;;15.00;99.90;;;;;;5074029;28;20253;-65
2023/04/23 07:01:15;;;;;;;0.70;0.70;;;15.20;99.90;;;;;;5071335;28;20219;-64
2023/04/23 07:03:43;;;;;;;0.70;0.70;;;15.30;99.90;;;;;;5066186;28;20203;-65
2023/04/23 07:06:11;;;;;;;1.00;1.00;;;15.40;99.90;;;;;;5060156;28;20210;-65
2023/04/23 07:08:39;;;;;;;0.60;0.60;;;15.50;99.90;;;;;;5064527;28;20222;-65
2023/04/23 07:11:05;;;;;;;0.70;0.70;;;15.50;99.90;;;;;;5070172;28;20238;-66
2023/04/23 07:13:32;;;;;;;0.55;0.55;;;15.60;99.90;;;;;;5070678;28;20207;-63
2023/04/23 07:15:59;;;;;;;0.50;0.50;;;15.70;99.90;;;;;;5070865;28;20215;-64
2023/04/23 07:18:26;;;;;;;0.50;0.50;;;15.80;99.90;;;;;;5071867;28;20210;-64
2023/04/23 07:20:53;;;;;;;0.77;0.77;;;15.90;99.90;;;;;;5069981;28;20227;-64
2023/04/23 07:23:21;;;;;;;0.70;0.70;;;16.00;99.90;;;;;;5070363;28;20211;-64
2023/04/23 07:25:48;;;;;;;0.90;0.40;;;16.10;99.90;;;;;;5071614;28;20203;-63
2023/04/23 07:28:15;;;;;;;0.60;0.60;;;16.20;99.90;;;;;;5071304;28;20203;-66
2023/04/23 07:30:41;;;;;;;0.50;0.50;;;16.40;99.90;;;;;;5077522;28;20233;-65
2023/04/23 07:33:08;;;;;;;0.60;0.60;;;16.50;99.90;;;;;;5071040;28;20206;-65
2023/04/23 07:35:35;;;;;;;0.65;0.65;;;16.70;99.90;;;;;;5075059;28;20299;-66
2023/04/23 07:38:03;;;;;;;0.50;0.50;;;16.80;99.90;;;;;;5080337;28;20195;-65
2023/04/23 07:40:31;;;;;;;0.57;0.57;;;16.80;99.90;;;;;;5079990;28;20262;-65
2023/04/23 07:42:58;;;;;;;0.70;0.70;;;16.70;99.90;;;;;;5077521;28;20693;-64
2023/04/23 07:45:25;;;;;;;0.80;0.80;;;16.70;99.90;;;;;;5074178;28;20207;-65
2023/04/23 07:47:52;;;;;;;0.73;0.70;;;16.80;99.90;;;;;;5069493;28;20218;-64
2023/04/23 07:50:19;;;;;;;0.50;0.50;;;16.70;99.90;;;;;;5070841;28;20231;-62
2023/04/23 07:52:45;;;;;;;0.50;0.50;;;16.80;99.90;;;;;;5072473;28;20206;-63
2023/04/23 07:55:12;;;;;;;0.70;0.53;;;17.00;99.90;;;;;;5074594;28;20222;-64
2023/04/23 07:57:40;;;;;;;0.90;0.90;;;17.10;99.90;;;;;;5075521;28;20270;-64
2023/04/23 08:00:10;;;;;;;0.83;0.83;;;17.10;99.90;;;;;;5073953;28;20226;-64
2023/04/23 08:02:36;;;;;;;0.52;0.52;;;17.30;99.90;;;;;;5074355;28;20207;-65
2023/04/23 08:05:04;;;;;;;0.50;0.50;;;17.50;99.90;;;;;;5073334;28;20198;-63
2023/04/23 08:07:30;;;;;;;0.50;0.50;;;17.70;99.90;;;;;;5072579;28;20209;-64
2023/04/23 08:10:01;;;;;;;0.40;0.40;;;17.70;99.90;;;;;;5071817;28;20608;-63
2023/04/23 08:12:28;;;;;;;0.43;0.43;;;17.80;99.90;;;;;;5072663;28;20211;-64
2023/04/23 08:14:57;;;;;;;0.70;0.70;;;17.90;99.90;;;;;;5071004;28;20222;-65
2023/04/23 08:17:23;;;;;;;0.70;0.70;;;18.00;99.90;;;;;;5075682;28;20207;-65
2023/04/23 08:19:50;;;;;;;0.40;0.40;;;17.90;99.90;;;;;;5075711;28;20203;-64
2023/04/23 08:22:17;;;;;;;0.93;0.67;;;17.90;99.90;;;;;;5076256;28;20211;-66
2023/04/23 08:24:45;;;;;;;0.52;0.52;;;18.10;99.90;;;;;;5074817;28;20199;-63
2023/04/23 08:27:12;;;;;;;0.50;0.50;;;18.10;99.90;;;;;;5075727;28;20207;-65
2023/04/23 08:29:38;;;;;;;0.60;0.60;;;18.30;99.90;;;;;;5074117;28;20590;-65
2023/04/23 08:32:07;;;;;;;0.50;0.50;;;18.40;99.90;;;;;;5075695;28;20211;-64
2023/04/23 08:34:33;;;;;;;0.50;0.50;;;18.60;99.90;;;;;;5075303;28;20223;-64
2023/04/23 08:37:00;;;;;;;0.50;0.50;;;18.80;99.90;;;;;;5075748;28;20203;-65
2023/04/23 08:39:29;;;;;;;0.52;0.52;;;18.80;99.90;;;;;;5074549;28;20218;-66
2023/04/23 08:41:58;;;;;;;0.50;0.50;;;18.70;99.90;;;;;;5073190;28;20327;-65
2023/04/23 08:44:26;;;;;;;0.65;0.60;;;18.60;99.90;;;;;;5076246;28;20225;-66
2023/04/23 08:46:54;;;;;;;0.60;0.60;;;18.60;99.90;;;;;;5077106;28;20204;-66
2023/04/23 08:49:23;;;;;;;0.30;0.30;;;18.80;99.90;;;;;;5075550;28;20309;-64
2023/04/23 08:51:52;;;;;;;0.47;0.32;;;19.10;99.90;;;;;;5075926;28;20235;-64
2023/04/23 08:54:25;;;;;;;0.40;0.40;;;19.40;99.90;;;;;;5077493;28;20231;-64
2023/04/23 08:56:56;;;;;;;1.08;0.40;;;19.70;99.90;;;;;;5075118;28;20214;-64
2023/04/23 08:59:23;;;;;;;0.40;0.40;;;19.80;99.90;;;;;;5074330;28;20211;-63
2023/04/23 09:01:50;;;;;;;0.40;0.40;;;19.80;99.90;;;;;;5073853;28;20229;-65
2023/04/23 09:04:19;;;;;;;0.43;0.43;;;20.00;99.90;;;;;;5069033;28;20192;-63
2023/04/23 09:06:47;;;;;;;0.35;0.35;;;19.80;99.90;;;;;;5067628;28;20578;-66
2023/04/23 09:09:17;;;;;;;0.47;0.47;;;19.60;99.90;;;;;;5055808;28;20277;-64
2023/04/23 09:11:45;;;;;;;0.40;0.40;;;19.40;99.90;;;;;;5057123;28;20252;-64
2023/04/23 09:14:13;;;;;;;0.60;0.60;;;19.30;99.90;;;;;;5059055;28;20241;-66
2023/04/23 09:16:41;;;;;;;0.70;0.70;;;19.30;99.90;;;;;;5058663;28;20204;-64
2023/04/23 09:19:10;;;;;;;0.40;0.40;;;19.10;99.90;;;;;;5061532;28;20205;-64
2023/04/23 09:21:39;;;;;;;0.40;0.40;;;19.10;99.90;;;;;;5052199;28;20601;-65
2023/04/23 09:24:11;;;;;;;0.50;0.50;;;19.20;99.90;;;;;;5054460;28;20776;-64
2023/04/23 09:26:45;;;;;;;0.52;0.52;;;19.20;99.90;;;;;;5066632;28;20204;-64
2023/04/23 09:29:16;;;;;;;0.30;0.30;;;19.30;99.90;;;;;;5061947;28;20208;-63
2023/04/23 09:31:43;;;;;;;0.35;0.35;;;19.40;99.90;;;;;;5061752;28;20624;-63
2023/04/23 09:34:10;;;;;;;0.55;0.55;;;19.50;99.90;;;;;;5066621;28;20199;-66
2023/04/23 09:36:37;;;;;;;0.60;0.60;;;19.60;99.90;;;;;;5072739;28;20290;-67
2023/04/23 09:39:13;;;;;;;0.60;0.60;;;19.60;99.90;;;;;;5077024;28;20610;-65
2023/04/23 09:41:40;;;;;;;0.70;0.70;;;19.60;99.90;;;;;;5078158;28;20306;-64
2023/04/23 09:44:07;;;;;;;0.60;0.60;;;19.60;99.90;;;;;;5070244;28;20338;-66
2023/04/23 09:46:36;;;;;;;0.60;0.60;;;19.70;99.90;;;;;;5074516;28;20308;-65
2023/04/23 09:49:04;;;;;;;0.45;0.45;;;19.70;99.90;;;;;;5065090;28;20210;-63
2023/04/23 09:51:31;;;;;;;0.50;0.50;;;19.80;99.90;;;;;;5064838;28;20223;-64
2023/04/23 09:54:01;;;;;;;0.52;0.52;;;19.90;99.90;;;;;;5066012;28;20206;-67
2023/04/23 09:56:30;;;;;;;0.65;0.45;;;20.00;99.90;;;;;;5064583;28;20216;-64
2023/04/23 09:58:57;;;;;;;0.80;0.80;;;20.10;99.90;;;;;;5063363;28;20199;-66
2023/04/23 10:01:29;;;;;;;0.57;0.50;;;20.10;99.90;;;;;;5060688;28;20662;-68
2023/04/23 10:03:56;;;;;;;0.50;0.50;;;20.20;99.90;;;;;;5062887;28;20260;-63
2023/04/23 10:06:31;;;;;;;0.60;0.60;;;20.30;99.90;;;;;;5062860;28;20202;-67
2023/04/23 10:08:58;;;;;;;0.50;0.50;;;20.70;99.90;;;;;;5061341;28;20238;-66
2023/04/23 10:11:25;;;;;;;0.40;0.40;;;20.90;99.90;;;;;;5061448;28;20222;-66
2023/04/23 10:13:54;;;;;;;0.60;0.60;;;21.20;99.90;;;;;;5060531;28;20256;-65
2023/04/23 10:16:23;;;;;;;0.47;0.47;;;21.10;99.90;;;;;;5059496;28;20284;-65
2023/04/23 10:18:52;;;;;;;0.50;0.50;;;20.90;99.90;;;;;;5063210;28;20595;-65
2023/04/23 10:21:20;;;;;;;0.50;0.50;;;20.70;99.90;;;;;;5061857;28;20310;-66
2023/04/23 10:23:49;;;;;;;0.60;0.60;;;20.50;99.90;;;;;;5063689;28;20219;-64
2023/04/23 10:26:20;;;;;;;0.50;0.50;;;20.50;99.90;;;;;;5067145;28;20272;-63
2023/04/23 10:28:48;;;;;;;0.52;0.52;;;20.40;99.90;;;;;;5061848;28;20200;-65
2023/04/23 10:31:19;;;;;;;0.60;0.60;;;20.50;99.90;;;;;;5064963;28;20230;-66
2023/04/23 10:33:49;;;;;;;0.40;0.40;;;20.50;99.90;;;;;;5063187;28;20615;-65
2023/04/23 10:36:16;;;;;;;0.50;0.50;;;20.60;99.90;;;;;;5058925;28;20219;-65
2023/04/23 10:38:45;;;;;;;0.50;0.50;;;20.80;99.90;;;;;;5051261;28;20655;-64
2023/04/23 10:41:16;;;;;;;0.50;0.50;;;20.80;99.90;;;;;;5057903;28;20216;-64
2023/04/23 10:43:43;;;;;;;0.52;0.52;;;21.00;99.90;;;;;;5072082;28;20207;-66
2023/04/23 10:46:29;;;;;;;0.40;0.40;;;21.10;99.90;;;;;;5076420;28;20749;-65
2023/04/23 10:49:13;;;;;;;0.60;0.60;;;21.30;99.90;;;;;;5073171;28;20207;-64
2023/04/23 10:51:41;;;;;;;0.30;0.30;;;21.40;99.90;;;;;;5072785;28;20323;-65
2023/04/23 10:54:10;;;;;;;0.52;0.52;;;21.50;99.90;;;;;;5072622;28;20207;-64
2023/04/23 10:56:38;;;;;;;0.47;0.47;;;21.40;99.90;;;;;;5074758;28;20265;-64
2023/04/23 10:59:07;;;;;;;0.60;0.60;;;21.60;99.90;;;;;;5071789;28;20211;-65
2023/04/23 11:01:35;;;;;;;0.60;0.60;;;21.80;99.90;;;;;;5072040;28;20223;-63
2023/04/23 11:04:20;;;;;;;0.40;0.40;;;21.90;99.90;;;;;;5078278;28;20271;-65
2023/04/23 11:06:53;;;;;;;0.47;0.47;;;22.10;99.90;;;;;;5084585;28;20201;-64
2023/04/23 11:09:41;;;;;;;0.40;0.40;;;22.20;99.90;;;;;;5072298;28;20211;-64
2023/04/23 11:12:10;;;;;;;0.47;0.47;;;22.10;99.90;;;;;;5071171;28;20302;-64
2023/04/23 11:14:42;;;;;;;0.68;0.65;;;21.90;99.90;;;;;;5062388;28;20199;-66
2023/04/23 11:17:13;;;;;;;0.50;0.50;;;21.70;99.90;;;;;;5059547;28;21031;-65
2023/04/23 11:19:41;;;;;;;0.45;0.45;;;21.50;99.90;;;;;;5059681;28;20207;-65
2023/04/23 11:22:13;;;;;;;0.50;0.50;;;21.80;99.90;;;;;;5067899;28;20206;-64
2023/04/23 11:24:41;;;;;;;0.40;0.40;;;21.70;99.90;;;;;;5060637;28;20214;-64
2023/04/23 11:27:10;;;;;;;0.60;0.60;;;21.80;99.90;;;;;;5064599;28;20291;-65
2023/04/23 11:29:38;;;;;;;0.35;0.35;;;22.00;99.90;;;;;;5063134;28;20273;-64
2023/04/23 11:32:09;;;;;;;0.50;0.50;;;22.10;99.90;;;;;;5061767;28;20199;-65
2023/04/23 11:34:38;;;;;;;1.00;0.47;;;22.20;99.90;;;;;;5061646;28;20281;-64
2023/04/23 11:37:05;;;;;;;0.50;0.50;;;22.50;99.90;;;;;;5062623;28;20224;-65
2023/04/23 11:39:32;;;;;;;0.50;0.50;;;22.80;99.90;;;;;;5069192;28;20210;-65
2023/04/23 11:42:02;;;;;;;0.50;0.50;;;22.90;99.90;;;;;;5060190;28;20816;-65
2023/04/23 11:44:29;;;;;;;0.60;0.60;;;22.90;99.90;;;;;;5061586;28;20200;-65
2023/04/23 11:47:00;;;;;;;0.45;0.45;;;23.10;99.90;;;;;;5060789;28;20566;-64
2023/04/23 11:49:27;;;;;;;0.70;0.50;;;23.20;99.90;;;;;;5058966;28;20203;-64
2023/04/23 11:51:58;;;;;;;0.40;0.40;;;23.00;99.90;;;;;;5060081;28;20250;-65
2023/04/23 11:54:28;;;;;;;0.60;0.60;;;22.90;99.90;;;;;;5059771;28;20689;-65
2023/04/23 11:56:56;;;;;;;0.40;0.40;;;23.00;99.90;;;;;;5060390;28;20219;-64
2023/04/23 11:59:23;;;;;;;0.50;0.50;;;23.00;99.90;;;;;;5061187;28;20227;-64
2023/04/23 12:01:53;;;;;;;0.50;0.50;;;23.10;99.90;;;;;;5057597;28;20242;-66
2023/04/23 12:04:21;;;;;;;0.30;0.30;;;23.20;99.90;;;;;;5057500;28;20207;-65
2023/04/23 12:06:50;;;;;;;0.47;0.47;;;22.80;99.90;;;;;;5061110;28;20196;-65
2023/04/23 12:09:20;;;;;;;0.40;0.40;;;22.70;99.90;;;;;;5057926;28;20202;-64
2023/04/23 12:11:49;;;;;;;0.52;0.50;;;22.50;99.90;;;;;;5061415;28;20226;-65
2023/04/23 12:14:19;;;;;;;0.50;0.50;;;22.20;99.90;;;;;;5059595;28;20213;-65
2023/04/23 12:16:51;;;;;;;0.55;0.55;;;22.40;99.90;;;;;;5059464;28;20211;-66
2023/04/23 12:19:19;;;;;;;0.43;0.43;;;22.50;99.90;;;;;;5069902;28;20668;-65
2023/04/23 12:21:53;;;;;;;0.22;0.22;;;22.50;99.90;;;;;;5062152;28;20232;-66
2023/04/23 12:24:22;;;;;;;0.40;0.40;;;22.60;99.90;;;;;;5049846;28;20203;-65
2023/04/23 12:26:54;;;;;;;1.33;0.60;;;22.70;99.90;;;;;;5055934;28;20191;-65
2023/04/23 12:29:22;;;;;;;0.60;0.60;;;22.70;99.90;;;;;;5068355;28;20266;-66
2023/04/23 12:31:51;;;;;;;0.70;0.70;;;22.60;99.90;;;;;;5068962;28;20231;-66
2023/04/23 12:34:19;;;;;;;0.55;0.55;;;22.50;99.90;;;;;;5060109;28;20212;-65
2023/04/23 12:36:48;;;;;;;0.52;0.52;;;22.50;99.90;;;;;;5052198;28;20253;-65
2023/04/23 12:39:28;;;;;;;0.57;0.57;;;22.90;99.90;;;;;;5068549;28;20720;-66
2023/04/23 12:41:58;;;;;;;0.52;0.52;;;23.20;99.90;;;;;;5068741;28;20241;-66
2023/04/23 12:44:26;;;;;;;0.50;0.50;;;23.30;99.90;;;;;;5069615;28;20334;-67
2023/04/23 12:46:57;;;;;;;0.55;0.55;;;23.20;99.90;;;;;;5073082;28;20199;-65
2023/04/23 12:49:25;;;;;;;0.55;0.55;;;23.00;99.90;;;;;;5058228;28;20204;-66
2023/04/23 12:51:56;;;;;;;0.55;0.55;;;23.00;99.90;;;;;;5064644;28;20232;-66
2023/04/23 12:54:23;;;;;;;0.70;0.70;;;23.00;99.90;;;;;;5068560;28;20253;-65